sensor_id;sensor_type;location;lat;lon;timestamp;pressure;altitude;pressure_sealevel;temperature;humidity
41062;BME280;26812;42.662;23.352;2023-11-18T00:00:22;94192.22;;;7.11;81.65
41062;BME280;26812;42.662;23.352;2023-11-18T00:02:49;94184.19;;;7.11;79.74
41062;BME280;26812;42.662;23.352;2023-11-18T00:05:14;94198.84;;;7.05;80.07
41062;BME280;26812;42.662;23.352;2023-11-18T00:07:41;94202.41;;;6.92;79.53
41062;BME280;26812;42.662;23.352;2023-11-18T00:10:06;94205.56;;;6.94;79.72
41062;BME280;26812;42.662;23.352;2023-11-18T00:12:33;94172.06;;;6.66;80.07
41062;BME280;26812;42.662;23.352;2023-11-18T00:15:05;94207.03;;;6.69;79.03
41062;BME280;26812;42.662;23.352;2023-11-18T00:17:31;94203.50;;;6.51;79.49
41062;BME280;26812;42.662;23.352;2023-11-18T00:19:57;94214.88;;;6.26;79.50
41062;BME280;26812;42.662;23.352;2023-11-18T00:22:22;94218.41;;;6.13;81.53
41062;BME280;26812;42.662;23.352;2023-11-18T00:24:48;94234.69;;;6.25;79.73
41062;BME280;26812;42.662;23.352;2023-11-18T00:27:13;94205.91;;;6.31;79.67
41062;BME280;26812;42.662;23.352;2023-11-18T00:29:40;94211.78;;;6.41;79.42
41062;BME280;26812;42.662;23.352;2023-11-18T00:32:06;94184.94;;;6.55;78.55
41062;BME280;26812;42.662;23.352;2023-11-18T00:34:32;94187.59;;;6.46;79.23
41062;BME280;26812;42.662;23.352;2023-11-18T00:36:58;94204.16;;;6.57;78.47
41062;BME280;26812;42.662;23.352;2023-11-18T00:39:24;94198.50;;;6.59;78.85
41062;BME280;26812;42.662;23.352;2023-11-18T00:41:49;94184.22;;;6.72;77.55
41062;BME280;26812;42.662;23.352;2023-11-18T00:44:15;94189.72;;;6.67;77.79
41062;BME280;26812;42.662;23.352;2023-11-18T00:46:40;94174.59;;;6.31;78.28
41062;BME280;26812;42.662;23.352;2023-11-18T00:49:06;94205.84;;;6.13;79.93
41062;BME280;26812;42.662;23.352;2023-11-18T00:51:31;94203.72;;;6.33;79.54
41062;BME280;26812;42.662;23.352;2023-11-18T00:53:57;94204.25;;;6.12;79.51
41062;BME280;26812;42.662;23.352;2023-11-18T00:56:23;94206.72;;;6.31;80.66
41062;BME280;26812;42.662;23.352;2023-11-18T00:58:49;94213.38;;;6.42;78.92
41062;BME280;26812;42.662;23.352;2023-11-18T01:01:14;94208.41;;;6.27;79.64
41062;BME280;26812;42.662;23.352;2023-11-18T01:03:44;94159.81;;;6.03;79.21
41062;BME280;26812;42.662;23.352;2023-11-18T01:06:09;94207.22;;;6.11;79.55
41062;BME280;26812;42.662;23.352;2023-11-18T01:08:35;94204.66;;;5.83;79.82
41062;BME280;26812;42.662;23.352;2023-11-18T01:11:00;94214.03;;;5.95;79.88
41062;BME280;26812;42.662;23.352;2023-11-18T01:13:26;94216.22;;;5.93;80.71
41062;BME280;26812;42.662;23.352;2023-11-18T01:15:52;94213.47;;;6.06;79.83
41062;BME280;26812;42.662;23.352;2023-11-18T01:18:17;94208.50;;;5.91;79.77
41062;BME280;26812;42.662;23.352;2023-11-18T01:20:43;94231.00;;;5.76;80.35
41062;BME280;26812;42.662;23.352;2023-11-18T01:23:08;94217.63;;;5.76;79.18
41062;BME280;26812;42.662;23.352;2023-11-18T01:25:34;94217.56;;;5.68;79.57
41062;BME280;26812;42.662;23.352;2023-11-18T01:28:00;94217.31;;;5.78;79.90
41062;BME280;26812;42.662;23.352;2023-11-18T01:30:25;94213.38;;;5.75;80.32
41062;BME280;26812;42.662;23.352;2023-11-18T01:32:52;94213.59;;;6.01;80.55
41062;BME280;26812;42.662;23.352;2023-11-18T01:35:17;94202.19;;;6.40;80.74
41062;BME280;26812;42.662;23.352;2023-11-18T01:37:43;94216.72;;;6.48;78.02
41062;BME280;26812;42.662;23.352;2023-11-18T01:40:09;94226.09;;;6.37;78.64
41062;BME280;26812;42.662;23.352;2023-11-18T01:42:38;94208.69;;;5.95;78.86
41062;BME280;26812;42.662;23.352;2023-11-18T01:45:04;94198.06;;;5.67;78.90
41062;BME280;26812;42.662;23.352;2023-11-18T01:47:31;94204.22;;;5.68;80.29
41062;BME280;26812;42.662;23.352;2023-11-18T01:49:59;94239.91;;;5.85;78.72
41062;BME280;26812;42.662;23.352;2023-11-18T01:52:26;94227.41;;;5.95;78.78
41062;BME280;26812;42.662;23.352;2023-11-18T01:54:53;94219.31;;;5.86;78.42
41062;BME280;26812;42.662;23.352;2023-11-18T01:57:20;94225.84;;;5.80;77.80
41062;BME280;26812;42.662;23.352;2023-11-18T01:59:46;94213.06;;;6.13;78.11
41062;BME280;26812;42.662;23.352;2023-11-18T02:02:11;94215.25;;;6.42;78.58
41062;BME280;26812;42.662;23.352;2023-11-18T02:04:38;94212.16;;;6.48;75.98
41062;BME280;26812;42.662;23.352;2023-11-18T02:07:04;94221.19;;;5.85;77.51
41062;BME280;26812;42.662;23.352;2023-11-18T02:09:34;94217.50;;;5.59;78.51
41062;BME280;26812;42.662;23.352;2023-11-18T02:12:16;94236.34;;;5.54;78.27
41062;BME280;26812;42.662;23.352;2023-11-18T02:14:45;94230.03;;;5.72;77.66
41062;BME280;26812;42.662;23.352;2023-11-18T02:17:14;94214.56;;;6.05;76.85
41062;BME280;26812;42.662;23.352;2023-11-18T02:19:40;94233.91;;;5.66;75.85
41062;BME280;26812;42.662;23.352;2023-11-18T02:22:06;94225.72;;;5.13;76.98
41062;BME280;26812;42.662;23.352;2023-11-18T02:24:33;94227.72;;;4.93;78.21
41062;BME280;26812;42.662;23.352;2023-11-18T02:27:03;94235.94;;;4.97;77.78
41062;BME280;26812;42.662;23.352;2023-11-18T02:29:33;94229.16;;;5.27;77.75
41062;BME280;26812;42.662;23.352;2023-11-18T02:32:20;94236.59;;;5.16;75.20
41062;BME280;26812;42.662;23.352;2023-11-18T02:34:56;94214.56;;;4.97;75.91
41062;BME280;26812;42.662;23.352;2023-11-18T02:37:24;94225.44;;;4.87;76.05
41062;BME280;26812;42.662;23.352;2023-11-18T02:39:53;94216.13;;;4.84;75.76
41062;BME280;26812;42.662;23.352;2023-11-18T02:42:21;94208.53;;;4.91;75.57
41062;BME280;26812;42.662;23.352;2023-11-18T02:44:48;94239.16;;;5.21;75.22
41062;BME280;26812;42.662;23.352;2023-11-18T02:47:16;94233.72;;;5.26;73.70
41062;BME280;26812;42.662;23.352;2023-11-18T02:49:42;94239.09;;;4.99;74.19
41062;BME280;26812;42.662;23.352;2023-11-18T02:52:07;94226.50;;;5.27;74.37
41062;BME280;26812;42.662;23.352;2023-11-18T02:54:35;94235.19;;;5.33;73.51
41062;BME280;26812;42.662;23.352;2023-11-18T02:57:00;94242.47;;;5.41;72.40
41062;BME280;26812;42.662;23.352;2023-11-18T02:59:26;94240.84;;;5.31;72.42
41062;BME280;26812;42.662;23.352;2023-11-18T03:01:55;94235.31;;;5.00;72.70
41062;BME280;26812;42.662;23.352;2023-11-18T03:04:21;94252.41;;;4.85;73.26
41062;BME280;26812;42.662;23.352;2023-11-18T03:06:46;94266.53;;;4.58;74.25
41062;BME280;26812;42.662;23.352;2023-11-18T03:09:11;94257.22;;;4.42;74.68
41062;BME280;26812;42.662;23.352;2023-11-18T03:11:38;94268.44;;;4.72;73.84
41062;BME280;26812;42.662;23.352;2023-11-18T03:14:04;94259.63;;;4.85;75.04
41062;BME280;26812;42.662;23.352;2023-11-18T03:16:30;94244.41;;;4.72;73.61
41062;BME280;26812;42.662;23.352;2023-11-18T03:18:55;94272.75;;;4.54;73.86
41062;BME280;26812;42.662;23.352;2023-11-18T03:21:20;94280.41;;;4.74;73.88
41062;BME280;26812;42.662;23.352;2023-11-18T03:23:46;94286.66;;;4.97;73.91
41062;BME280;26812;42.662;23.352;2023-11-18T03:26:11;94287.59;;;4.74;73.41
41062;BME280;26812;42.662;23.352;2023-11-18T03:28:37;94311.44;;;4.84;73.33
41062;BME280;26812;42.662;23.352;2023-11-18T03:31:04;94299.84;;;4.61;73.49
41062;BME280;26812;42.662;23.352;2023-11-18T03:33:30;94283.94;;;4.70;72.95
41062;BME280;26812;42.662;23.352;2023-11-18T03:35:55;94293.88;;;4.50;73.07
41062;BME280;26812;42.662;23.352;2023-11-18T03:38:21;94287.75;;;4.36;73.77
41062;BME280;26812;42.662;23.352;2023-11-18T03:40:47;94305.72;;;4.44;73.08
41062;BME280;26812;42.662;23.352;2023-11-18T03:43:13;94319.22;;;4.01;74.22
41062;BME280;26812;42.662;23.352;2023-11-18T03:45:41;94304.44;;;4.09;73.63
41062;BME280;26812;42.662;23.352;2023-11-18T03:48:07;94309.88;;;4.36;73.90
41062;BME280;26812;42.662;23.352;2023-11-18T03:50:35;94312.81;;;4.35;73.65
41062;BME280;26812;42.662;23.352;2023-11-18T03:53:01;94317.50;;;4.24;72.54
41062;BME280;26812;42.662;23.352;2023-11-18T03:55:28;94304.47;;;4.55;72.28
41062;BME280;26812;42.662;23.352;2023-11-18T03:57:53;94301.72;;;4.60;71.01
41062;BME280;26812;42.662;23.352;2023-11-18T04:00:19;94322.00;;;4.75;72.96
41062;BME280;26812;42.662;23.352;2023-11-18T04:02:46;94314.00;;;4.61;70.94
41062;BME280;26812;42.662;23.352;2023-11-18T04:05:12;94323.72;;;4.52;70.23
41062;BME280;26812;42.662;23.352;2023-11-18T04:07:37;94305.81;;;4.07;71.50
41062;BME280;26812;42.662;23.352;2023-11-18T04:10:03;94314.03;;;4.10;72.57
41062;BME280;26812;42.662;23.352;2023-11-18T04:12:31;94313.47;;;4.27;71.81
41062;BME280;26812;42.662;23.352;2023-11-18T04:14:57;94326.38;;;4.20;71.17
41062;BME280;26812;42.662;23.352;2023-11-18T04:17:22;94330.09;;;4.05;71.29
41062;BME280;26812;42.662;23.352;2023-11-18T04:19:48;94323.38;;;4.08;71.37
41062;BME280;26812;42.662;23.352;2023-11-18T04:22:13;94321.88;;;3.83;70.92
41062;BME280;26812;42.662;23.352;2023-11-18T04:24:38;94326.25;;;3.92;71.35
41062;BME280;26812;42.662;23.352;2023-11-18T04:27:04;94303.16;;;3.88;71.15
41062;BME280;26812;42.662;23.352;2023-11-18T04:29:29;94292.28;;;3.84;71.92
41062;BME280;26812;42.662;23.352;2023-11-18T04:31:55;94329.09;;;4.01;71.07
41062;BME280;26812;42.662;23.352;2023-11-18T04:34:20;94321.72;;;3.93;70.91
41062;BME280;26812;42.662;23.352;2023-11-18T04:36:46;94330.91;;;4.38;70.75
41062;BME280;26812;42.662;23.352;2023-11-18T04:39:11;94334.69;;;4.18;70.73
41062;BME280;26812;42.662;23.352;2023-11-18T04:41:37;94332.41;;;3.74;70.24
41062;BME280;26812;42.662;23.352;2023-11-18T04:44:03;94350.34;;;3.68;70.85
41062;BME280;26812;42.662;23.352;2023-11-18T04:46:28;94334.34;;;3.68;71.85
41062;BME280;26812;42.662;23.352;2023-11-18T04:48:54;94326.72;;;3.81;71.25
41062;BME280;26812;42.662;23.352;2023-11-18T04:51:20;94326.56;;;3.72;70.76
41062;BME280;26812;42.662;23.352;2023-11-18T04:53:47;94356.09;;;3.94;70.38
41062;BME280;26812;42.662;23.352;2023-11-18T04:56:19;94333.88;;;4.18;70.74
41062;BME280;26812;42.662;23.352;2023-11-18T04:58:46;94316.06;;;3.99;69.35
41062;BME280;26812;42.662;23.352;2023-11-18T05:01:13;94308.78;;;3.49;71.11
41062;BME280;26812;42.662;23.352;2023-11-18T05:03:39;94342.16;;;3.60;71.83
41062;BME280;26812;42.662;23.352;2023-11-18T05:06:05;94332.38;;;3.55;71.06
41062;BME280;26812;42.662;23.352;2023-11-18T05:08:30;94323.75;;;3.82;70.87
41062;BME280;26812;42.662;23.352;2023-11-18T05:10:56;94326.34;;;3.87;69.93
41062;BME280;26812;42.662;23.352;2023-11-18T05:13:23;94328.72;;;3.89;70.21
41062;BME280;26812;42.662;23.352;2023-11-18T05:15:48;94335.06;;;4.12;69.50
41062;BME280;26812;42.662;23.352;2023-11-18T05:18:15;94336.19;;;4.24;68.66
41062;BME280;26812;42.662;23.352;2023-11-18T05:20:44;94328.84;;;3.97;69.08
41062;BME280;26812;42.662;23.352;2023-11-18T05:23:10;94322.97;;;4.00;69.17
41062;BME280;26812;42.662;23.352;2023-11-18T05:25:37;94337.94;;;3.96;70.27
41062;BME280;26812;42.662;23.352;2023-11-18T05:28:04;94320.31;;;4.00;69.81
41062;BME280;26812;42.662;23.352;2023-11-18T05:30:30;94323.81;;;3.96;70.63
41062;BME280;26812;42.662;23.352;2023-11-18T05:32:57;94319.88;;;4.26;68.07
41062;BME280;26812;42.662;23.352;2023-11-18T05:35:23;94311.25;;;4.34;68.05
41062;BME280;26812;42.662;23.352;2023-11-18T05:37:53;94308.13;;;4.27;67.20
41062;BME280;26812;42.662;23.352;2023-11-18T05:40:19;94284.78;;;4.51;68.04
41062;BME280;26812;42.662;23.352;2023-11-18T05:42:45;94323.72;;;4.52;66.95
41062;BME280;26812;42.662;23.352;2023-11-18T05:45:13;94310.19;;;3.97;67.87
41062;BME280;26812;42.662;23.352;2023-11-18T05:47:53;94323.53;;;3.97;69.11
41062;BME280;26812;42.662;23.352;2023-11-18T05:50:18;94322.81;;;4.11;68.44
41062;BME280;26812;42.662;23.352;2023-11-18T05:52:44;94300.50;;;3.88;68.96
41062;BME280;26812;42.662;23.352;2023-11-18T05:55:09;94320.34;;;3.58;69.40
41062;BME280;26812;42.662;23.352;2023-11-18T05:57:34;94318.63;;;4.04;68.83
41062;BME280;26812;42.662;23.352;2023-11-18T06:00:01;94306.09;;;3.86;68.17
41062;BME280;26812;42.662;23.352;2023-11-18T06:02:26;94299.03;;;3.95;69.06
41062;BME280;26812;42.662;23.352;2023-11-18T06:04:51;94314.03;;;4.10;68.83
41062;BME280;26812;42.662;23.352;2023-11-18T06:07:17;94299.84;;;3.77;68.12
41062;BME280;26812;42.662;23.352;2023-11-18T06:09:44;94312.16;;;3.73;69.78
41062;BME280;26812;42.662;23.352;2023-11-18T06:12:10;94315.03;;;3.95;67.84
41062;BME280;26812;42.662;23.352;2023-11-18T06:14:43;94294.72;;;3.43;69.99
41062;BME280;26812;42.662;23.352;2023-11-18T06:17:09;94331.00;;;3.58;69.83
41062;BME280;26812;42.662;23.352;2023-11-18T06:19:38;94325.34;;;3.83;69.79
41062;BME280;26812;42.662;23.352;2023-11-18T06:22:03;94327.38;;;3.72;69.71
41062;BME280;26812;42.662;23.352;2023-11-18T06:24:31;94325.19;;;3.37;71.01
41062;BME280;26812;42.662;23.352;2023-11-18T06:26:56;94327.56;;;3.57;70.61
41062;BME280;26812;42.662;23.352;2023-11-18T06:29:23;94327.22;;;4.01;71.06
41062;BME280;26812;42.662;23.352;2023-11-18T06:31:48;94333.38;;;3.97;69.93
41062;BME280;26812;42.662;23.352;2023-11-18T06:34:14;94334.56;;;3.91;69.65
41062;BME280;26812;42.662;23.352;2023-11-18T06:36:39;94320.34;;;3.58;70.79
41062;BME280;26812;42.662;23.352;2023-11-18T06:39:05;94332.47;;;3.69;70.33
41062;BME280;26812;42.662;23.352;2023-11-18T06:41:31;94339.59;;;3.73;70.12
41062;BME280;26812;42.662;23.352;2023-11-18T06:44:00;94303.78;;;3.61;70.02
41062;BME280;26812;42.662;23.352;2023-11-18T06:46:32;94327.63;;;3.90;69.08
41062;BME280;26812;42.662;23.352;2023-11-18T06:49:00;94341.13;;;3.98;69.82
41062;BME280;26812;42.662;23.352;2023-11-18T06:51:30;94337.81;;;3.69;69.10
41062;BME280;26812;42.662;23.352;2023-11-18T06:53:57;94336.22;;;4.05;69.43
41062;BME280;26812;42.662;23.352;2023-11-18T06:56:27;94323.69;;;4.39;67.69
41062;BME280;26812;42.662;23.352;2023-11-18T06:58:53;94353.16;;;4.47;66.39
41062;BME280;26812;42.662;23.352;2023-11-18T07:01:19;94348.78;;;4.38;67.66
41062;BME280;26812;42.662;23.352;2023-11-18T07:03:46;94353.13;;;4.66;66.66
41062;BME280;26812;42.662;23.352;2023-11-18T07:06:16;94332.47;;;4.72;65.97
41062;BME280;26812;42.662;23.352;2023-11-18T07:08:50;94359.91;;;4.07;66.09
41062;BME280;26812;42.662;23.352;2023-11-18T07:11:16;94378.28;;;4.09;67.45
41062;BME280;26812;42.662;23.352;2023-11-18T07:13:42;94386.47;;;4.50;65.31
41062;BME280;26812;42.662;23.352;2023-11-18T07:16:08;94351.00;;;4.49;65.32
41062;BME280;26812;42.662;23.352;2023-11-18T07:18:37;94381.13;;;4.50;66.28
41062;BME280;26812;42.662;23.352;2023-11-18T07:21:06;94364.22;;;4.73;64.78
41062;BME280;26812;42.662;23.352;2023-11-18T07:23:32;94374.69;;;4.70;66.15
41062;BME280;26812;42.662;23.352;2023-11-18T07:25:58;94347.88;;;4.61;64.46
41062;BME280;26812;42.662;23.352;2023-11-18T07:28:24;94374.75;;;4.13;66.13
41062;BME280;26812;42.662;23.352;2023-11-18T07:30:49;94365.50;;;4.24;67.78
41062;BME280;26812;42.662;23.352;2023-11-18T07:33:16;94370.38;;;4.03;67.24
41062;BME280;26812;42.662;23.352;2023-11-18T07:35:46;94354.00;;;4.10;68.53
41062;BME280;26812;42.662;23.352;2023-11-18T07:38:12;94353.44;;;4.13;66.79
41062;BME280;26812;42.662;23.352;2023-11-18T07:40:38;94368.25;;;4.19;67.28
41062;BME280;26812;42.662;23.352;2023-11-18T07:43:08;94381.00;;;4.41;66.39
41062;BME280;26812;42.662;23.352;2023-11-18T07:45:37;94375.09;;;4.44;67.84
41062;BME280;26812;42.662;23.352;2023-11-18T07:48:11;94371.28;;;4.31;66.08
41062;BME280;26812;42.662;23.352;2023-11-18T07:50:44;94365.97;;;4.31;66.15
41062;BME280;26812;42.662;23.352;2023-11-18T07:53:10;94345.78;;;3.88;67.01
41062;BME280;26812;42.662;23.352;2023-11-18T07:55:36;94364.50;;;4.20;67.24
41062;BME280;26812;42.662;23.352;2023-11-18T07:58:06;94355.44;;;3.84;66.85
41062;BME280;26812;42.662;23.352;2023-11-18T08:00:37;94378.50;;;4.12;66.74
41062;BME280;26812;42.662;23.352;2023-11-18T08:03:04;94367.53;;;3.95;66.95
41062;BME280;26812;42.662;23.352;2023-11-18T08:05:32;94368.19;;;3.68;67.30
41062;BME280;26812;42.662;23.352;2023-11-18T08:07:58;94375.19;;;3.40;67.86
41062;BME280;26812;42.662;23.352;2023-11-18T08:10:24;94379.19;;;3.61;67.91
41062;BME280;26812;42.662;23.352;2023-11-18T08:12:50;94389.31;;;4.02;67.00
41062;BME280;26812;42.662;23.352;2023-11-18T08:15:17;94411.13;;;3.85;68.23
41062;BME280;26812;42.662;23.352;2023-11-18T08:17:44;94405.22;;;3.88;66.71
41062;BME280;26812;42.662;23.352;2023-11-18T08:20:09;94374.44;;;3.96;66.26
41062;BME280;26812;42.662;23.352;2023-11-18T08:22:41;94395.84;;;4.47;66.71
41062;BME280;26812;42.662;23.352;2023-11-18T08:25:12;94390.09;;;4.02;66.18
41062;BME280;26812;42.662;23.352;2023-11-18T08:27:41;94377.34;;;4.18;66.52
41062;BME280;26812;42.662;23.352;2023-11-18T08:30:08;94394.41;;;4.17;65.54
41062;BME280;26812;42.662;23.352;2023-11-18T08:32:38;94371.13;;;4.23;66.16
41062;BME280;26812;42.662;23.352;2023-11-18T08:35:05;94411.91;;;3.86;65.32
41062;BME280;26812;42.662;23.352;2023-11-18T08:37:33;94378.69;;;3.97;66.37
41062;BME280;26812;42.662;23.352;2023-11-18T08:40:01;94366.00;;;4.45;66.10
41062;BME280;26812;42.662;23.352;2023-11-18T08:42:27;94369.78;;;4.58;64.53
41062;BME280;26812;42.662;23.352;2023-11-18T08:44:53;94361.78;;;4.07;65.24
41062;BME280;26812;42.662;23.352;2023-11-18T08:47:20;94379.72;;;4.20;65.50
41062;BME280;26812;42.662;23.352;2023-11-18T08:49:46;94373.91;;;3.99;65.61
41062;BME280;26812;42.662;23.352;2023-11-18T08:52:12;94375.91;;;3.69;65.60
41062;BME280;26812;42.662;23.352;2023-11-18T08:54:38;94382.66;;;3.81;65.85
41062;BME280;26812;42.662;23.352;2023-11-18T08:57:24;94412.66;;;4.10;65.28
41062;BME280;26812;42.662;23.352;2023-11-18T08:59:51;94396.28;;;4.35;65.53
41062;BME280;26812;42.662;23.352;2023-11-18T09:02:19;94394.13;;;4.38;64.80
41062;BME280;26812;42.662;23.352;2023-11-18T09:04:51;94388.94;;;4.09;65.36
41062;BME280;26812;42.662;23.352;2023-11-18T09:07:20;94382.75;;;4.13;66.89
41062;BME280;26812;42.662;23.352;2023-11-18T09:09:47;94392.44;;;4.60;65.27
41062;BME280;26812;42.662;23.352;2023-11-18T09:12:14;94403.63;;;4.25;64.02
41062;BME280;26812;42.662;23.352;2023-11-18T09:14:40;94410.63;;;3.83;66.96
41062;BME280;26812;42.662;23.352;2023-11-18T09:17:08;94412.06;;;3.94;66.41
41062;BME280;26812;42.662;23.352;2023-11-18T09:19:33;94336.72;;;3.27;66.14
41062;BME280;26812;42.662;23.352;2023-11-18T09:21:58;94388.94;;;4.09;66.36
41062;BME280;26812;42.662;23.352;2023-11-18T09:24:24;94358.81;;;3.89;65.80
41062;BME280;26812;42.662;23.352;2023-11-18T09:26:50;94385.47;;;4.27;65.06
41062;BME280;26812;42.662;23.352;2023-11-18T09:29:17;94390.47;;;4.15;66.64
41062;BME280;26812;42.662;23.352;2023-11-18T09:31:46;94377.72;;;4.63;64.33
41062;BME280;26812;42.662;23.352;2023-11-18T09:34:17;94388.28;;;4.35;65.06
41062;BME280;26812;42.662;23.352;2023-11-18T09:36:43;94369.88;;;4.01;64.78
41062;BME280;26812;42.662;23.352;2023-11-18T09:39:09;94339.59;;;3.73;66.34
41062;BME280;26812;42.662;23.352;2023-11-18T09:41:56;94357.16;;;4.31;65.75
41062;BME280;26812;42.662;23.352;2023-11-18T09:44:23;94387.09;;;4.60;64.17
41062;BME280;26812;42.662;23.352;2023-11-18T09:46:57;94375.03;;;4.12;64.93
41062;BME280;26812;42.662;23.352;2023-11-18T09:49:32;94373.97;;;4.13;65.09
41062;BME280;26812;42.662;23.352;2023-11-18T09:52:05;94373.94;;;3.94;65.76
41062;BME280;26812;42.662;23.352;2023-11-18T09:54:48;94373.09;;;4.17;66.26
41062;BME280;26812;42.662;23.352;2023-11-18T09:57:23;94369.34;;;4.37;65.03
41062;BME280;26812;42.662;23.352;2023-11-18T10:00:02;94366.25;;;3.92;65.22
41062;BME280;26812;42.662;23.352;2023-11-18T10:02:52;94367.81;;;3.93;65.59
41062;BME280;26812;42.662;23.352;2023-11-18T10:05:22;94367.63;;;3.90;65.03
41062;BME280;26812;42.662;23.352;2023-11-18T10:07:48;94373.16;;;3.93;65.21
41062;BME280;26812;42.662;23.352;2023-11-18T10:10:14;94390.88;;;4.41;64.48
41062;BME280;26812;42.662;23.352;2023-11-18T10:12:43;94403.41;;;4.21;65.20
41062;BME280;26812;42.662;23.352;2023-11-18T10:15:24;94382.31;;;4.25;63.63
41062;BME280;26812;42.662;23.352;2023-11-18T10:17:51;94361.06;;;3.82;64.21
41062;BME280;26812;42.662;23.352;2023-11-18T10:20:44;94390.91;;;4.03;64.62
41062;BME280;26812;42.662;23.352;2023-11-18T10:23:11;94402.22;;;4.14;65.49
41062;BME280;26812;42.662;23.352;2023-11-18T10:25:45;94379.84;;;4.28;65.13
41062;BME280;26812;42.662;23.352;2023-11-18T10:28:31;94402.91;;;4.19;63.68
41062;BME280;26812;42.662;23.352;2023-11-18T10:31:04;94400.50;;;3.61;65.16
41062;BME280;26812;42.662;23.352;2023-11-18T10:33:40;94382.75;;;4.13;64.84
41062;BME280;26812;42.662;23.352;2023-11-18T10:36:17;94387.50;;;3.97;62.90
41062;BME280;26812;42.662;23.352;2023-11-18T10:38:48;94353.09;;;4.01;64.02
41062;BME280;26812;42.662;23.352;2023-11-18T10:41:15;94368.56;;;3.99;63.14
41062;BME280;26812;42.662;23.352;2023-11-18T10:43:43;94361.88;;;4.01;63.80
41062;BME280;26812;42.662;23.352;2023-11-18T10:46:12;94376.97;;;3.87;64.79
41062;BME280;26812;42.662;23.352;2023-11-18T10:48:50;94353.72;;;3.93;63.44
41062;BME280;26812;42.662;23.352;2023-11-18T10:51:17;94363.72;;;4.20;63.27
41062;BME280;26812;42.662;23.352;2023-11-18T10:53:47;94370.06;;;4.24;62.57
41062;BME280;26812;42.662;23.352;2023-11-18T10:56:21;94355.50;;;4.35;63.30
41062;BME280;26812;42.662;23.352;2023-11-18T10:58:55;94353.91;;;4.34;63.31
41062;BME280;26812;42.662;23.352;2023-11-18T11:01:31;94354.13;;;4.84;61.21
41062;BME280;26812;42.662;23.352;2023-11-18T11:03:57;94362.03;;;4.75;61.00
41062;BME280;26812;42.662;23.352;2023-11-18T11:06:24;94354.75;;;4.48;62.03
41062;BME280;26812;42.662;23.352;2023-11-18T11:08:51;94328.44;;;4.74;62.57
41062;BME280;26812;42.662;23.352;2023-11-18T11:11:21;94336.41;;;4.60;61.45
41062;BME280;26812;42.662;23.352;2023-11-18T11:13:49;94342.13;;;4.02;62.34
41062;BME280;26812;42.662;23.352;2023-11-18T11:16:19;94345.31;;;4.70;62.53
41062;BME280;26812;42.662;23.352;2023-11-18T11:18:48;94335.66;;;4.41;61.24
41062;BME280;26812;42.662;23.352;2023-11-18T11:21:20;94364.00;;;4.37;62.20
41062;BME280;26812;42.662;23.352;2023-11-18T11:24:04;94342.44;;;4.66;63.25
41062;BME280;26812;42.662;23.352;2023-11-18T11:26:57;94349.59;;;4.84;62.27
41062;BME280;26812;42.662;23.352;2023-11-18T11:29:54;94355.47;;;5.41;60.60
41062;BME280;26812;42.662;23.352;2023-11-18T11:32:32;94345.97;;;5.49;59.24
41062;BME280;26812;42.662;23.352;2023-11-18T11:35:07;94328.72;;;4.73;59.73
41062;BME280;26812;42.662;23.352;2023-11-18T11:37:42;94350.09;;;4.54;60.29
41062;BME280;26812;42.662;23.352;2023-11-18T11:40:09;94326.09;;;4.54;62.08
41062;BME280;26812;42.662;23.352;2023-11-18T11:42:38;94317.00;;;4.41;61.56
41062;BME280;26812;42.662;23.352;2023-11-18T11:45:06;94342.72;;;3.99;62.12
41062;BME280;26812;42.662;23.352;2023-11-18T11:47:47;94338.00;;;4.29;62.64
41062;BME280;26812;42.662;23.352;2023-11-18T11:50:21;94345.66;;;4.49;61.87
41062;BME280;26812;42.662;23.352;2023-11-18T11:53:02;94349.03;;;4.03;63.36
41062;BME280;26812;42.662;23.352;2023-11-18T11:55:45;94336.72;;;4.08;62.74
41062;BME280;26812;42.662;23.352;2023-11-18T11:58:31;94358.63;;;5.16;62.42
41062;BME280;26812;42.662;23.352;2023-11-18T12:01:02;94348.44;;;5.59;57.89
41062;BME280;26812;42.662;23.352;2023-11-18T12:03:38;94364.88;;;5.39;57.77
41062;BME280;26812;42.662;23.352;2023-11-18T12:06:04;94353.59;;;5.42;57.41
41062;BME280;26812;42.662;23.352;2023-11-18T12:08:37;94353.09;;;5.53;58.97
41062;BME280;26812;42.662;23.352;2023-11-18T12:11:05;94350.97;;;5.78;57.96
41062;BME280;26812;42.662;23.352;2023-11-18T12:13:35;94363.06;;;5.75;57.23
41062;BME280;26812;42.662;23.352;2023-11-18T12:16:07;94366.53;;;5.48;58.78
41062;BME280;26812;42.662;23.352;2023-11-18T12:18:35;94371.47;;;5.00;60.32
41062;BME280;26812;42.662;23.352;2023-11-18T12:21:02;94361.78;;;4.90;60.55
41062;BME280;26812;42.662;23.352;2023-11-18T12:23:28;94365.66;;;4.98;61.09
41062;BME280;26812;42.662;23.352;2023-11-18T12:25:56;94352.13;;;4.62;60.63
41062;BME280;26812;42.662;23.352;2023-11-18T12:28:30;94362.91;;;4.71;62.03
41062;BME280;26812;42.662;23.352;2023-11-18T12:30:59;94340.72;;;4.56;61.70
41062;BME280;26812;42.662;23.352;2023-11-18T12:41:38;94370.22;;;4.65;60.99
41062;BME280;26812;42.662;23.352;2023-11-18T12:44:14;94373.78;;;4.60;61.55
41062;BME280;26812;42.662;23.352;2023-11-18T12:46:53;94373.59;;;4.71;61.37
41062;BME280;26812;42.662;23.352;2023-11-18T12:49:21;94380.41;;;4.77;61.29
41062;BME280;26812;42.662;23.352;2023-11-18T12:51:50;94359.13;;;4.90;62.41
41062;BME280;26812;42.662;23.352;2023-11-18T12:54:16;94348.81;;;4.51;62.36
41062;BME280;26812;42.662;23.352;2023-11-18T12:56:43;94354.38;;;4.03;63.37
41062;BME280;26812;42.662;23.352;2023-11-18T12:59:19;94351.88;;;4.26;63.00
41062;BME280;26812;42.662;23.352;2023-11-18T13:01:49;94348.91;;;4.46;64.25
41062;BME280;26812;42.662;23.352;2023-11-18T13:04:27;94334.25;;;4.62;62.82
41062;BME280;26812;42.662;23.352;2023-11-18T13:06:52;94361.25;;;4.42;62.81
41062;BME280;26812;42.662;23.352;2023-11-18T13:09:22;94344.63;;;4.31;63.42
41062;BME280;26812;42.662;23.352;2023-11-18T13:11:55;94358.13;;;4.02;63.75
41062;BME280;26812;42.662;23.352;2023-11-18T13:14:23;94366.69;;;3.99;65.05